Time;durP1;ratioP1;P1;durP2;ratioP2;P2;SDS_P1;SDS_P2;PMS_P1;PMS_P2;Temp;Humidity;BMP_temperature;BMP_pressure;BME280_temperature;BME280_humidity;BME280_pressure;Samples;Min_cycle;Max_cycle;Signal;HPM_P1;HPM_P2
2022/06/26 00:01:03;;;;;;;4.07;3.08;;;;;;;24.69;51.87;101153.69;5065146;28;20037;-59
2022/06/26 00:03:29;;;;;;;4.90;3.60;;;;;;;24.69;51.92;101156.41;5065023;28;20028;-60
2022/06/26 00:05:54;;;;;;;3.72;3.33;;;;;;;24.69;51.98;101150.94;5065352;28;20024;-60
2022/06/26 00:08:21;;;;;;;5.35;3.42;;;;;;;24.69;52.06;101150.13;5064745;28;20539;-59
2022/06/26 00:10:46;;;;;;;4.32;3.47;;;;;;;24.67;51.95;101144.88;5078155;28;20025;-60
2022/06/26 00:13:12;;;;;;;5.90;3.75;;;;;;;24.70;51.98;101157.22;5089153;28;20039;-60
2022/06/26 00:15:37;;;;;;;6.03;4.18;;;;;;;24.67;52.01;101150.31;5089182;28;20036;-59
2022/06/26 00:18:03;;;;;;;6.00;4.93;;;;;;;24.68;52.09;101145.72;5089096;28;20096;-59
2022/06/26 00:20:29;;;;;;;6.93;4.03;;;;;;;24.68;52.13;101138.41;5088970;28;20029;-60
2022/06/26 00:22:54;;;;;;;5.85;4.05;;;;;;;24.61;51.92;101134.81;5089160;28;20044;-60
2022/06/26 00:25:19;;;;;;;5.32;3.88;;;;;;;24.68;51.97;101143.84;5088486;28;20028;-60
2022/06/26 00:27:46;;;;;;;4.53;4.13;;;;;;;24.67;52.11;101139.44;5088882;28;20062;-58
2022/06/26 00:30:13;;;;;;;5.65;4.60;;;;;;;24.64;51.97;101139.00;5088821;28;20020;-60
2022/06/26 00:32:38;;;;;;;6.18;4.55;;;;;;;24.63;52.07;101127.28;5088866;28;20025;-60
2022/06/26 00:35:04;;;;;;;7.85;5.28;;;;;;;24.67;52.03;101142.13;5088838;28;20024;-60
2022/06/26 00:37:29;;;;;;;6.88;5.25;;;;;;;24.65;51.94;101144.25;5088581;28;20028;-59
2022/06/26 00:39:54;;;;;;;6.95;5.22;;;;;;;24.66;52.01;101140.47;5087882;28;20041;-59
2022/06/26 00:42:20;;;;;;;5.65;4.68;;;;;;;24.65;51.56;101135.25;5088348;28;20048;-60
2022/06/26 00:44:45;;;;;;;8.10;5.55;;;;;;;24.62;52.10;101132.91;5088521;28;20025;-60
2022/06/26 00:47:11;;;;;;;5.88;5.28;;;;;;;24.65;52.14;101146.13;5088746;28;20043;-60
2022/06/26 00:49:36;;;;;;;5.88;4.93;;;;;;;24.62;52.04;101150.06;5088113;28;20029;-59
2022/06/26 00:52:01;;;;;;;6.20;5.10;;;;;;;24.64;52.25;101160.75;5088517;28;20024;-60
2022/06/26 00:54:28;;;;;;;7.15;5.60;;;;;;;24.63;52.19;101167.22;5088556;28;20035;-59
2022/06/26 00:56:57;;;;;;;5.97;4.68;;;;;;;24.63;52.27;101167.22;5088085;28;20041;-60
2022/06/26 00:59:24;;;;;;;6.45;4.85;;;;;;;24.57;52.22;101165.31;5088417;28;20158;-59
2022/06/26 01:01:50;;;;;;;5.00;4.50;;;;;;;24.63;52.12;101167.22;5082096;28;20237;-58
2022/06/26 01:04:16;;;;;;;5.80;5.18;;;;;;;24.60;52.36;101173.91;5078310;28;20020;-59
2022/06/26 01:06:42;;;;;;;6.65;5.22;;;;;;;24.61;52.25;101177.47;5079622;28;20028;-60
2022/06/26 01:09:07;;;;;;;5.78;4.75;;;;;;;24.62;52.38;101179.13;5067897;28;20025;-57
2022/06/26 01:11:32;;;;;;;6.18;4.68;;;;;;;24.57;52.46;101171.59;5079330;28;20061;-58
2022/06/26 01:13:58;;;;;;;5.65;4.70;;;;;;;24.61;52.39;101182.91;5088156;28;20076;-59
2022/06/26 01:16:24;;;;;;;6.20;5.00;;;;;;;24.61;52.31;101191.91;5087897;28;20024;-60
2022/06/26 01:18:51;;;;;;;5.22;4.32;;;;;;;24.60;52.47;101192.94;5084631;28;20235;-59
2022/06/26 01:21:18;;;;;;;6.88;4.88;;;;;;;24.59;52.55;101187.69;5066788;28;20031;-60
2022/06/26 01:23:44;;;;;;;6.90;5.35;;;;;;;24.59;52.52;101187.69;5066399;28;20103;-59
2022/06/26 01:26:09;;;;;;;6.75;5.35;;;;;;;24.56;52.66;101177.22;5065993;28;20021;-59
2022/06/26 01:28:34;;;;;;;7.65;5.20;;;;;;;24.58;52.53;101196.88;5067333;28;20031;-60
2022/06/26 01:30:59;;;;;;;7.53;5.20;;;;;;;24.57;52.52;101196.06;5066529;28;20103;-60
2022/06/26 01:33:25;;;;;;;6.18;5.30;;;;;;;24.57;52.52;101198.78;5066178;28;20033;-60
2022/06/26 01:35:50;;;;;;;6.38;5.40;;;;;;;24.57;52.54;101197.94;5070328;28;20036;-59
2022/06/26 01:38:20;;;;;;;5.85;4.50;;;;;;;24.57;52.47;101204.22;5087157;28;20025;-59
2022/06/26 01:40:46;;;;;;;5.18;4.40;;;;;;;24.56;52.55;101210.69;5086785;28;20036;-60
2022/06/26 01:43:17;;;;;;;5.78;4.70;;;;;;;24.57;52.49;101206.09;5087451;28;20020;-59
2022/06/26 01:45:44;;;;;;;6.03;4.90;;;;;;;24.56;52.60;101201.69;5087467;28;20032;-59
2022/06/26 01:48:09;;;;;;;7.00;4.93;;;;;;;24.55;52.70;101206.31;5087411;28;20031;-59
2022/06/26 01:50:34;;;;;;;6.45;5.22;;;;;;;24.54;52.72;101193.72;5087547;28;20025;-59
2022/06/26 01:53:00;;;;;;;6.35;5.28;;;;;;;24.55;52.48;101189.13;5087460;28;20066;-60
2022/06/26 01:55:25;;;;;;;5.65;4.80;;;;;;;24.54;52.67;101182.00;5086979;28;20078;-60
2022/06/26 01:57:50;;;;;;;5.72;4.72;;;;;;;24.53;52.69;101181.19;5087229;28;20111;-59
2022/06/26 02:00:15;;;;;;;5.97;4.78;;;;;;;24.52;52.83;101184.94;5087068;28;20027;-59
2022/06/26 02:02:41;;;;;;;6.80;4.60;;;;;;;24.51;52.74;101188.72;5087098;28;20336;-59
2022/06/26 02:05:06;;;;;;;6.35;4.65;;;;;;;24.53;52.73;101191.22;5087038;28;20036;-60
2022/06/26 02:07:32;;;;;;;5.53;4.13;;;;;;;24.50;52.72;101197.03;5086967;28;20123;-59
2022/06/26 02:15:25;;;;;;;4.90;4.18;;;;;;;24.50;52.59;101202.47;5066544;28;20027;-60
2022/06/26 02:17:51;;;;;;;4.45;3.80;;;;;;;24.36;52.46;101179.78;5066654;28;20057;-59
2022/06/26 02:20:16;;;;;;;4.78;3.67;;;;;;;24.47;52.60;101201.03;5066589;28;20029;-59
2022/06/26 02:22:41;;;;;;;4.53;3.90;;;;;;;24.49;52.68;101200.81;5066683;28;20462;-59
2022/06/26 02:25:08;;;;;;;3.80;3.30;;;;;;;24.49;52.37;101203.53;5066522;28;20043;-58
2022/06/26 02:27:34;;;;;;;4.43;3.35;;;;;;;24.48;52.43;101197.25;5065355;28;20021;-59
2022/06/26 02:29:59;;;;;;;4.25;3.33;;;;;;;24.48;52.34;101196.41;5066338;28;20032;-60
2022/06/26 02:32:24;;;;;;;4.57;3.22;;;;;;;24.48;52.47;101199.97;5066104;28;20100;-60
2022/06/26 02:34:50;;;;;;;4.13;2.83;;;;;;;24.47;52.11;101200.16;5066547;28;20032;-59
2022/06/26 02:37:15;;;;;;;4.07;3.65;;;;;;;24.46;52.04;101191.16;5066408;28;20070;-59
2022/06/26 02:39:40;;;;;;;3.88;2.65;;;;;;;24.46;52.04;101190.31;5066274;28;20516;-59
2022/06/26 02:42:05;;;;;;;3.72;2.78;;;;;;;24.45;52.14;101184.06;5065860;28;20040;-60
2022/06/26 02:44:31;;;;;;;3.58;2.88;;;;;;;24.44;51.88;101180.50;5066051;28;20108;-59
2022/06/26 02:46:56;;;;;;;4.30;3.28;;;;;;;24.44;51.85;101182.38;5066398;28;20024;-59
2022/06/26 02:49:21;;;;;;;3.97;2.30;;;;;;;24.43;52.07;101184.25;5065711;28;20433;-60
2022/06/26 02:51:46;;;;;;;2.85;2.10;;;;;;;24.42;51.82;101182.59;5066205;28;20028;-60
2022/06/26 02:54:13;;;;;;;3.40;2.22;;;;;;;24.41;51.83;101171.91;5065884;28;20033;-59
2022/06/26 02:56:38;;;;;;;2.70;2.30;;;;;;;24.42;51.84;101184.44;5065661;28;20033;-60
2022/06/26 02:59:03;;;;;;;4.03;2.40;;;;;;;24.41;51.71;101183.59;5064558;28;20124;-59
2022/06/26 03:01:28;;;;;;;3.38;2.20;;;;;;;24.41;51.76;101188.19;5065987;28;20028;-59
2022/06/26 03:03:54;;;;;;;4.00;2.20;;;;;;;24.39;51.58;101172.09;5065807;28;20029;-60
2022/06/26 03:06:19;;;;;;;4.60;2.33;;;;;;;24.39;51.61;101172.09;5065926;28;20037;-59
2022/06/26 03:08:44;;;;;;;3.28;1.85;;;;;;;24.39;51.71;101169.38;5065423;28;20037;-59
2022/06/26 03:11:09;;;;;;;2.00;1.80;;;;;;;24.38;51.41;101166.84;5077451;28;20024;-59
2022/06/26 03:13:35;;;;;;;2.75;2.08;;;;;;;24.37;51.38;101160.56;5085774;28;20028;-60
2022/06/26 03:16:00;;;;;;;2.70;1.80;;;;;;;24.37;51.33;101159.72;5085608;28;20554;-59
2022/06/26 03:18:25;;;;;;;2.17;1.60;;;;;;;24.36;51.45;101166.19;5084344;28;20031;-59
2022/06/26 03:20:50;;;;;;;2.20;1.63;;;;;;;24.36;51.28;101168.91;5085597;28;20052;-59
2022/06/26 03:23:16;;;;;;;3.45;2.28;;;;;;;24.34;51.35;101168.25;5085363;28;20020;-60
2022/06/26 03:25:41;;;;;;;2.78;2.03;;;;;;;24.34;51.20;101173.69;5084031;28;20473;-59
2022/06/26 03:28:06;;;;;;;2.67;2.20;;;;;;;24.34;51.31;101184.56;5085695;28;20051;-56
2022/06/26 03:30:32;;;;;;;2.92;1.73;;;;;;;24.33;51.37;101191.88;5085812;28;20016;-59
2022/06/26 03:32:57;;;;;;;4.05;1.98;;;;;;;24.33;51.33;101197.31;5085310;28;20363;-60
2022/06/26 03:35:22;;;;;;;2.00;1.63;;;;;;;24.33;51.42;101204.63;5085517;28;20025;-59
2022/06/26 03:37:47;;;;;;;3.75;2.10;;;;;;;24.31;51.21;101217.59;5085219;28;20039;-59
2022/06/26 03:40:13;;;;;;;2.25;1.75;;;;;;;24.31;51.11;101221.13;5084479;28;20048;-59
2022/06/26 03:42:38;;;;;;;2.40;1.90;;;;;;;24.23;51.05;101217.72;5085031;28;20116;-59
2022/06/26 03:45:04;;;;;;;2.88;1.63;;;;;;;24.30;51.02;101243.91;5084814;28;20047;-59
2022/06/26 03:47:29;;;;;;;2.33;1.70;;;;;;;24.29;51.23;101247.66;5085508;28;20029;-60
2022/06/26 03:49:54;;;;;;;1.90;1.52;;;;;;;24.28;50.82;101242.44;5085183;28;20142;-59
2022/06/26 03:52:21;;;;;;;3.63;1.42;;;;;;;24.28;50.94;101256.84;5085066;28;20052;-59
2022/06/26 03:54:46;;;;;;;2.20;1.80;;;;;;;24.29;51.00;101265.84;5084808;28;20029;-59
2022/06/26 03:57:12;;;;;;;2.65;1.55;;;;;;;24.28;51.00;101266.88;5085214;28;20116;-59
2022/06/26 03:59:37;;;;;;;3.35;1.77;;;;;;;24.25;50.93;101259.94;5066914;28;20036;-60
2022/06/26 04:02:03;;;;;;;2.97;1.85;;;;;;;24.25;50.97;101249.06;5084201;28;20020;-59
2022/06/26 04:04:28;;;;;;;2.70;1.38;;;;;;;24.27;51.01;101254.34;5085077;28;20016;-59
2022/06/26 04:06:53;;;;;;;3.25;1.33;;;;;;;24.25;51.08;101259.13;5085187;28;20028;-59
2022/06/26 04:09:19;;;;;;;1.77;1.45;;;;;;;24.25;51.21;101275.41;5084893;28;20020;-60
2022/06/26 04:11:44;;;;;;;1.85;1.65;;;;;;;24.24;51.17;101265.59;5067157;28;20385;-59
2022/06/26 04:14:10;;;;;;;2.13;1.50;;;;;;;24.23;51.08;101269.34;5064813;28;20036;-59
2022/06/26 04:16:35;;;;;;;1.98;1.63;;;;;;;24.13;51.22;101259.66;5064920;28;20059;-59
2022/06/26 04:19:00;;;;;;;1.95;1.63;;;;;;;24.22;51.13;101268.50;5064712;28;20044;-60
2022/06/26 04:21:26;;;;;;;1.75;1.50;;;;;;;24.23;51.14;101266.63;5064871;28;20273;-60
2022/06/26 04:23:51;;;;;;;2.70;1.60;;;;;;;24.20;51.24;101271.41;5064690;28;20021;-59
2022/06/26 04:26:16;;;;;;;1.90;1.60;;;;;;;24.23;51.47;101286.50;5064368;28;20497;-59
2022/06/26 04:28:41;;;;;;;1.83;1.30;;;;;;;24.22;51.09;101292.97;5064747;28;20068;-60
2022/06/26 04:31:07;;;;;;;2.65;1.73;;;;;;;24.17;50.99;101276.38;5064965;28;20055;-59
2022/06/26 04:33:32;;;;;;;1.70;1.40;;;;;;;24.21;51.20;101285.81;5064607;28;20080;-60
2022/06/26 04:35:57;;;;;;;2.70;1.70;;;;;;;24.19;51.21;101290.63;5064810;28;20089;-59
2022/06/26 04:38:22;;;;;;;2.38;1.60;;;;;;;24.20;51.19;101301.28;5064650;28;20029;-59
2022/06/26 04:40:48;;;;;;;2.00;1.77;;;;;;;24.20;51.18;101301.28;5064171;28;20044;-58
2022/06/26 04:43:13;;;;;;;2.95;1.70;;;;;;;24.20;51.30;101304.00;5064602;28;20037;-59
2022/06/26 04:45:38;;;;;;;1.80;1.63;;;;;;;24.19;51.46;101298.78;5064613;28;20029;-60
2022/06/26 04:48:04;;;;;;;2.30;1.65;;;;;;;24.18;51.30;101306.09;5064759;28;20111;-57
2022/06/26 04:50:29;;;;;;;2.83;1.80;;;;;;;24.19;51.12;101304.22;5064505;28;20028;-59
2022/06/26 04:52:55;;;;;;;2.53;2.00;;;;;;;24.19;51.12;101315.91;5064625;28;20029;-59
2022/06/26 04:55:20;;;;;;;1.95;1.70;;;;;;;24.18;51.10;101311.53;5065716;28;20021;-60
2022/06/26 04:57:45;;;;;;;2.40;1.90;;;;;;;24.11;51.08;101305.19;5068436;28;20029;-60
2022/06/26 05:00:14;;;;;;;2.90;2.10;;;;;;;24.17;51.14;101315.28;5068275;28;20048;-59
2022/06/26 05:02:39;;;;;;;;;;;;;;;24.16;50.83;101332.59;5068345;28;20108;-59
2022/06/26 05:05:05;;;;;;;6.00;2.50;;;;;;;24.16;51.02;101320.91;5067453;28;19909;-59
2022/06/26 05:07:31;;;;;;;3.80;2.50;;;;;;;24.15;50.96;101322.78;5052215;28;20394;-59
2022/06/26 05:09:57;;;;;;;3.40;2.33;;;;;;;24.10;50.98;101318.97;5052137;28;20048;-59
2022/06/26 05:12:22;;;;;;;3.03;2.30;;;;;;;24.15;50.83;101314.63;5087642;28;20078;-60
2022/06/26 05:14:48;;;;;;;3.40;2.20;;;;;;;24.14;50.88;101325.69;5087860;28;20051;-59
2022/06/26 05:17:13;;;;;;;4.22;3.10;;;;;;;24.09;50.84;101315.41;5088048;28;20461;-59
2022/06/26 05:19:38;;;;;;;3.90;2.83;;;;;;;24.14;50.70;101326.53;5087641;28;20032;-59
2022/06/26 05:22:04;;;;;;;3.65;2.58;;;;;;;24.09;50.44;101318.13;5087764;28;20025;-60
2022/06/26 05:24:30;;;;;;;3.40;2.90;;;;;;;24.13;50.52;101343.03;5087644;28;20169;-59
2022/06/26 05:26:59;;;;;;;6.47;3.22;;;;;;;24.11;50.56;101340.50;5087379;28;20020;-59
2022/06/26 05:29:25;;;;;;;4.95;3.00;;;;;;;24.05;50.51;101341.28;5087378;28;20020;-60
2022/06/26 05:31:50;;;;;;;4.85;3.22;;;;;;;24.12;50.25;101355.75;5087627;28;20088;-60
2022/06/26 05:34:16;;;;;;;6.00;3.88;;;;;;;24.12;50.31;101354.91;5087438;28;20028;-60
2022/06/26 05:36:41;;;;;;;3.92;3.47;;;;;;;24.11;50.19;101364.09;5087648;28;20021;-60
2022/06/26 05:39:07;;;;;;;4.18;3.08;;;;;;;24.11;50.15;101367.66;5069154;28;20020;-59
2022/06/26 05:41:32;;;;;;;4.40;3.70;;;;;;;24.07;50.22;101357.38;5066511;28;20063;-55
2022/06/26 05:43:57;;;;;;;4.47;3.08;;;;;;;24.08;50.12;101367.19;5067438;28;20029;-59
2022/06/26 05:46:23;;;;;;;6.13;3.08;;;;;;;24.11;50.28;101372.25;5067187;28;20021;-59
2022/06/26 05:48:48;;;;;;;3.92;2.58;;;;;;;24.11;49.94;101374.97;5066702;28;20049;-59
2022/06/26 05:51:13;;;;;;;4.72;3.30;;;;;;;24.10;49.95;101367.88;5065910;28;20029;-59
2022/06/26 05:53:38;;;;;;;4.15;3.00;;;;;;;24.10;49.88;101365.97;5065703;28;20054;-59
2022/06/26 05:56:04;;;;;;;3.78;2.88;;;;;;;24.11;50.13;101366.81;5066446;28;20045;-59
2022/06/26 05:58:30;;;;;;;3.50;3.08;;;;;;;24.11;50.19;101369.53;5067325;28;20625;-59
2022/06/26 06:00:55;;;;;;;4.78;3.00;;;;;;;24.11;49.69;101372.25;5077218;28;20020;-59
2022/06/26 06:03:20;;;;;;;3.65;2.85;;;;;;;24.11;49.96;101383.97;5078154;28;20096;-60
2022/06/26 06:05:45;;;;;;;4.93;3.10;;;;;;;24.11;50.13;101397.53;5067031;28;20104;-59
2022/06/26 06:08:11;;;;;;;4.00;3.00;;;;;;;24.11;50.22;101408.41;5078945;28;20025;-59
2022/06/26 06:10:36;;;;;;;4.28;2.90;;;;;;;24.11;50.05;101402.13;5085343;28;20043;-60
2022/06/26 06:13:02;;;;;;;4.53;3.15;;;;;;;24.04;50.02;101393.91;5086850;28;20047;-60
2022/06/26 06:15:27;;;;;;;3.70;2.95;;;;;;;24.09;49.80;101404.22;5084182;28;20032;-60
2022/06/26 06:17:52;;;;;;;4.63;3.13;;;;;;;24.10;50.05;101395.03;5067016;28;20029;-60
2022/06/26 06:20:19;;;;;;;3.97;2.95;;;;;;;24.10;49.94;101401.31;5066659;28;20119;-60
2022/06/26 06:22:53;;;;;;;3.80;2.80;;;;;;;24.10;49.80;101417.59;5066517;28;20033;-60
2022/06/26 06:25:19;;;;;;;4.15;2.78;;;;;;;24.10;49.95;101420.31;5046121;28;20051;-59
2022/06/26 06:27:44;;;;;;;4.25;2.90;;;;;;;24.09;50.08;101418.66;5046707;28;20184;-60
2022/06/26 06:30:10;;;;;;;4.75;3.38;;;;;;;24.09;49.83;101424.06;5046418;28;20037;-60
2022/06/26 06:32:36;;;;;;;4.00;2.83;;;;;;;24.08;49.83;101429.69;5051568;28;20021;-60
2022/06/26 06:35:01;;;;;;;4.63;3.22;;;;;;;24.10;49.86;101433.06;5086470;28;20028;-60
2022/06/26 06:37:27;;;;;;;4.60;3.33;;;;;;;24.05;50.00;101421.94;5086218;28;20033;-60
2022/06/26 06:39:54;;;;;;;3.85;2.80;;;;;;;24.08;49.88;101427.81;5084834;28;20087;-60
2022/06/26 06:42:19;;;;;;;5.07;3.33;;;;;;;24.10;49.96;101427.63;5085409;28;20182;-60
2022/06/26 06:44:45;;;;;;;5.05;2.72;;;;;;;24.06;49.97;101423.59;5086239;28;20457;-59
2022/06/26 06:47:12;;;;;;;4.97;3.63;;;;;;;24.10;50.01;101444.78;5086171;28;20039;-60
2022/06/26 06:49:38;;;;;;;4.88;2.85;;;;;;;24.10;49.86;101442.06;5072856;28;20024;-60
2022/06/26 06:52:03;;;;;;;5.15;2.95;;;;;;;24.11;49.93;101449.16;5066162;28;20042;-60
2022/06/26 06:54:29;;;;;;;3.25;2.78;;;;;;;24.08;49.87;101454.97;5064522;28;20025;-60
2022/06/26 06:56:54;;;;;;;3.97;3.30;;;;;;;24.09;50.00;101458.56;5065578;28;20021;-60
2022/06/26 06:59:20;;;;;;;3.72;3.17;;;;;;;24.12;50.11;101464.41;5065656;28;20025;-60
2022/06/26 07:01:45;;;;;;;4.32;2.85;;;;;;;24.14;49.92;101462.38;5065700;28;20029;-60
2022/06/26 07:04:10;;;;;;;4.43;3.42;;;;;;;24.14;50.02;101469.69;5065882;28;20017;-60
2022/06/26 07:06:36;;;;;;;4.35;3.03;;;;;;;24.14;50.04;101469.69;5066072;28;20405;-60
2022/06/26 07:09:03;;;;;;;4.20;3.10;;;;;;;24.16;49.91;101483.91;5065582;28;20029;-59
2022/06/26 07:11:28;;;;;;;4.10;2.90;;;;;;;24.09;49.88;101469.41;5065251;28;20024;-60
2022/06/26 07:13:53;;;;;;;4.25;3.15;;;;;;;24.15;50.00;101474.91;5065401;28;20059;-60
2022/06/26 07:16:19;;;;;;;4.20;2.90;;;;;;;24.11;49.85;101459.19;5065568;28;20029;-60
2022/06/26 07:18:44;;;;;;;3.80;2.80;;;;;;;24.16;49.95;101471.16;5064435;28;20036;-58
2022/06/26 07:21:09;;;;;;;4.38;3.33;;;;;;;24.16;49.78;101473.03;5065832;28;20478;-59
2022/06/26 07:23:35;;;;;;;4.35;3.20;;;;;;;24.16;49.76;101470.31;5065452;28;20020;-59
2022/06/26 07:26:00;;;;;;;4.00;3.00;;;;;;;24.15;49.47;101472.19;5064958;28;20099;-59
2022/06/26 07:28:26;;;;;;;3.88;2.90;;;;;;;24.10;49.76;101461.06;5065321;28;20058;-59
2022/06/26 07:30:52;;;;;;;3.80;2.70;;;;;;;24.16;49.63;101462.19;5065414;28;20098;-60
2022/06/26 07:36:01;;;;;;;3.92;2.95;;;;;;;24.17;49.44;101475.59;5065468;28;20069;-60
2022/06/26 07:38:26;;;;;;;3.88;2.85;;;;;;;24.14;49.53;101470.53;5063294;28;20024;-59
2022/06/26 07:40:52;;;;;;;4.90;2.85;;;;;;;24.19;49.58;101473.50;5064381;28;20045;-60
2022/06/26 07:43:17;;;;;;;3.10;2.50;;;;;;;24.19;49.44;101481.66;5064855;28;20363;-59
2022/06/26 07:45:43;;;;;;;4.72;3.13;;;;;;;24.20;49.34;101482.50;5063646;28;20029;-60
2022/06/26 07:48:08;;;;;;;3.47;2.70;;;;;;;24.20;49.28;101488.78;5065131;28;20021;-60
2022/06/26 07:50:33;;;;;;;4.00;2.42;;;;;;;24.23;49.37;101493.00;5064715;28;20033;-60
2022/06/26 07:52:58;;;;;;;3.58;2.83;;;;;;;24.24;49.35;101505.53;5063838;28;20064;-59
2022/06/26 07:55:24;;;;;;;3.38;2.60;;;;;;;24.25;49.18;101498.22;5064712;28;20045;-60
2022/06/26 07:57:49;;;;;;;3.10;2.38;;;;;;;24.25;49.09;101504.50;5065173;28;20033;-60
2022/06/26 08:00:14;;;;;;;4.18;2.78;;;;;;;24.23;49.37;101512.00;5064973;28;20021;-60
2022/06/26 08:02:40;;;;;;;3.35;2.30;;;;;;;24.25;49.18;101517.25;5065074;28;20486;-60
2022/06/26 08:05:06;;;;;;;5.95;2.85;;;;;;;24.25;49.03;101515.38;5063733;28;20029;-60
2022/06/26 08:07:32;;;;;;;3.70;2.90;;;;;;;24.27;48.90;101513.31;5074549;28;20025;-60
2022/06/26 08:09:57;;;;;;;3.13;2.30;;;;;;;24.26;48.92;101511.66;5066995;28;20046;-60
2022/06/26 08:12:22;;;;;;;3.78;2.35;;;;;;;24.27;48.87;101518.75;5083169;28;20024;-60
2022/06/26 08:14:47;;;;;;;3.10;2.38;;;;;;;24.28;48.91;101520.44;5084857;28;20016;-59
2022/06/26 08:17:13;;;;;;;4.03;2.53;;;;;;;24.28;48.65;101525.03;5085099;28;20084;-60
2022/06/26 08:19:38;;;;;;;4.07;2.65;;;;;;;24.29;49.10;101529.44;5069143;28;20169;-60
2022/06/26 08:22:04;;;;;;;2.85;2.25;;;;;;;24.18;48.50;101500.88;5063451;28;20028;-60
2022/06/26 08:24:30;;;;;;;2.38;2.00;;;;;;;24.30;48.58;101522.94;5064561;28;20036;-59
2022/06/26 08:26:56;;;;;;;4.43;2.60;;;;;;;24.33;48.77;101525.31;5080041;28;20423;-60
2022/06/26 08:29:21;;;;;;;4.78;2.50;;;;;;;24.34;48.50;101521.53;5064406;28;20028;-60
2022/06/26 08:31:46;;;;;;;2.15;1.95;;;;;;;24.33;48.38;101518.00;5068921;28;20029;-60
2022/06/26 08:34:12;;;;;;;2.58;2.38;;;;;;;24.36;48.57;101522.22;5068430;28;20021;-60
2022/06/26 08:36:38;;;;;;;2.50;2.20;;;;;;;24.36;48.24;101530.38;5068716;28;20055;-60
2022/06/26 08:39:04;;;;;;;2.58;1.80;;;;;;;24.36;48.20;101523.06;5068096;28;20036;-60
2022/06/26 08:41:33;;;;;;;2.58;2.00;;;;;;;24.33;48.13;101509.84;5066745;28;20096;-60
2022/06/26 08:43:59;;;;;;;2.80;2.05;;;;;;;24.17;48.10;101482.88;5068517;28;20028;-60
2022/06/26 08:46:26;;;;;;;2.72;2.03;;;;;;;24.25;47.84;101503.66;5068378;28;20355;-60
2022/06/26 08:48:53;;;;;;;2.33;1.90;;;;;;;24.39;48.01;101528.16;5067906;28;20068;-60
2022/06/26 08:51:19;;;;;;;2.13;1.73;;;;;;;24.38;47.89;101531.91;5068356;28;20025;-60
2022/06/26 08:53:45;;;;;;;2.60;1.73;;;;;;;24.39;48.09;101536.31;5068139;28;20027;-60
2022/06/26 08:56:10;;;;;;;3.05;1.67;;;;;;;24.40;47.70;101534.41;5067823;28;20084;-60
2022/06/26 08:58:36;;;;;;;2.72;1.55;;;;;;;24.37;47.81;101532.91;5068143;28;20377;-59
2022/06/26 09:01:01;;;;;;;4.53;2.20;;;;;;;24.41;47.80;101536.09;5066711;28;20100;-60
2022/06/26 09:03:26;;;;;;;3.33;1.80;;;;;;;24.27;48.01;101518.75;5068001;28;20086;-60
2022/06/26 09:05:51;;;;;;;3.78;1.90;;;;;;;24.39;47.94;101533.59;5068366;28;20466;-60
2022/06/26 09:08:21;;;;;;;2.78;2.05;;;;;;;24.42;47.81;101544.09;5083942;28;20112;-60
2022/06/26 09:10:48;;;;;;;1.98;1.58;;;;;;;24.43;47.75;101547.66;5087547;28;20028;-60
2022/06/26 09:13:13;;;;;;;3.80;1.85;;;;;;;24.42;47.63;101554.97;5087792;28;20024;-59
2022/06/26 09:15:40;;;;;;;2.25;1.95;;;;;;;24.42;47.55;101554.97;5087639;28;20040;-60
2022/06/26 09:18:08;;;;;;;2.17;1.50;;;;;;;24.43;47.80;101555.78;5084098;28;20032;-59
2022/06/26 09:20:35;;;;;;;2.42;1.75;;;;;;;24.25;47.89;101522.69;5066155;28;20025;-60
2022/06/26 09:23:02;;;;;;;2.55;1.92;;;;;;;24.44;47.52;101557.47;5067715;28;20029;-60
2022/06/26 09:25:43;;;;;;;3.00;1.65;;;;;;;24.45;47.64;101556.44;5067035;28;20067;-59
2022/06/26 09:28:19;;;;;;;3.05;1.80;;;;;;;24.46;47.48;101554.56;5067750;28;20524;-59
2022/06/26 09:30:55;;;;;;;3.58;1.80;;;;;;;24.46;47.45;101563.53;5066231;28;20033;-59
2022/06/26 09:33:26;;;;;;;4.53;2.25;;;;;;;24.46;47.47;101555.41;5066094;28;20048;-59
2022/06/26 09:35:53;;;;;;;1.77;1.50;;;;;;;24.46;47.47;101552.69;5082992;28;20076;-59
2022/06/26 09:38:22;;;;;;;1.90;1.48;;;;;;;24.47;47.38;101550.78;5067112;28;20028;-59
2022/06/26 09:40:53;;;;;;;6.30;1.85;;;;;;;24.48;47.41;101553.34;5066565;28;20052;-59
2022/06/26 09:43:33;;;;;;;1.90;1.38;;;;;;;24.43;47.29;101539.50;5066840;28;20507;-59
2022/06/26 09:46:01;;;;;;;1.92;1.40;;;;;;;24.28;47.38;101517.72;5067334;28;20025;-59
2022/06/26 09:48:26;;;;;;;2.27;1.80;;;;;;;24.45;47.37;101540.13;5067097;28;20043;-59
2022/06/26 09:50:52;;;;;;;3.45;1.60;;;;;;;24.36;47.40;101535.81;5067232;28;20266;-59
2022/06/26 09:53:18;;;;;;;2.35;1.70;;;;;;;24.41;47.96;101547.81;5066909;28;20021;-59
2022/06/26 09:55:49;;;;;;;2.53;1.58;;;;;;;24.48;47.86;101542.47;5066822;28;20098;-59
2022/06/26 09:58:15;;;;;;;2.75;1.70;;;;;;;24.48;47.84;101536.19;5066118;28;20028;-59
2022/06/26 10:00:40;;;;;;;2.55;1.75;;;;;;;24.47;48.15;101534.50;5066895;28;20034;-59
2022/06/26 10:08:41;;;;;;;2.08;1.50;;;;;;;24.51;48.28;101541.22;5084599;28;20063;-59
2022/06/26 10:11:07;;;;;;;2.03;1.55;;;;;;;24.51;48.37;101543.94;5086800;28;20047;-59
2022/06/26 10:13:33;;;;;;;2.78;1.42;;;;;;;24.49;48.31;101548.75;5087439;28;20040;-59
2022/06/26 10:16:07;;;;;;;2.00;1.27;;;;;;;24.51;48.53;101550.25;5093380;28;20019;-59
2022/06/26 10:18:56;;;;;;;2.45;1.48;;;;;;;24.53;48.52;101550.06;5085198;28;20035;-59
2022/06/26 10:21:21;;;;;;;2.25;1.30;;;;;;;24.52;48.59;101553.81;5074215;28;20029;-59
2022/06/26 10:23:47;;;;;;;2.13;1.50;;;;;;;24.49;48.53;101546.88;5072690;28;20041;-59
2022/06/26 10:26:17;;;;;;;1.73;1.10;;;;;;;24.53;48.48;101553.59;5068834;28;20048;-60
2022/06/26 10:29:04;;;;;;;2.35;1.15;;;;;;;24.54;48.45;101554.44;5066899;28;20047;-59
2022/06/26 10:31:42;;;;;;;1.93;1.47;;;;;;;24.54;48.32;101557.16;5066926;28;20055;-59
2022/06/26 10:34:19;;;;;;;3.95;1.60;;;;;;;24.51;48.38;101552.97;5065938;28;20292;-59
2022/06/26 10:37:05;;;;;;;2.70;1.50;;;;;;;24.54;48.43;101562.59;5066668;28;20020;-59
2022/06/26 10:39:43;;;;;;;2.33;1.50;;;;;;;24.52;48.47;101554.66;5066077;28;20029;-59
2022/06/26 10:45:28;;;;;;;1.83;1.27;;;;;;;24.53;48.35;101563.66;5066092;28;20040;-59
2022/06/26 10:47:58;;;;;;;2.38;1.48;;;;;;;24.52;48.37;101565.53;5066474;28;20028;-59
2022/06/26 10:50:38;;;;;;;1.80;1.20;;;;;;;24.43;48.41;101551.19;5065950;28;20029;-60
2022/06/26 10:53:25;;;;;;;1.58;1.27;;;;;;;24.53;48.63;101569.91;5066058;28;20044;-59
2022/06/26 10:55:53;;;;;;;2.80;1.50;;;;;;;24.52;48.40;101576.41;5065277;28;20032;-60
2022/06/26 10:58:23;;;;;;;2.87;1.40;;;;;;;24.51;48.35;101577.44;5066083;28;20371;-59
2022/06/26 11:00:49;;;;;;;2.55;1.33;;;;;;;24.52;48.36;101581.84;5065604;28;20370;-59
2022/06/26 11:03:16;;;;;;;3.33;1.50;;;;;;;24.33;48.41;101550.59;5064361;28;20466;-59
2022/06/26 11:05:55;;;;;;;2.00;1.10;;;;;;;24.53;48.47;101579.97;5064549;28;20043;-59
2022/06/26 11:08:31;;;;;;;2.58;1.63;;;;;;;24.53;48.47;101580.78;5048022;28;20387;-59
2022/06/26 11:11:08;;;;;;;2.05;1.40;;;;;;;24.53;48.37;101582.69;5065053;28;20032;-59
2022/06/26 11:13:35;;;;;;;3.55;1.77;;;;;;;24.53;48.34;101586.22;5065642;28;20056;-59
2022/06/26 11:16:01;;;;;;;4.57;1.83;;;;;;;24.53;48.30;101579.97;5065441;28;20021;-59
2022/06/26 11:18:32;;;;;;;2.25;1.95;;;;;;;24.52;48.36;101573.69;5065893;28;20048;-59
2022/06/26 11:20:57;;;;;;;2.70;2.00;;;;;;;24.50;48.43;101575.72;5065310;28;20083;-59
2022/06/26 11:23:28;;;;;;;2.05;1.45;;;;;;;24.53;48.36;101577.25;5065593;28;20036;-60
2022/06/26 11:25:56;;;;;;;1.45;1.20;;;;;;;24.52;48.28;101581.84;5063926;28;20025;-59
2022/06/26 11:28:41;;;;;;;1.70;1.20;;;;;;;24.53;48.33;101585.41;5065672;28;20025;-60
2022/06/26 11:31:09;;;;;;;1.45;1.08;;;;;;;24.53;48.19;101585.41;5063973;28;20360;-59
2022/06/26 11:33:36;;;;;;;2.88;1.55;;;;;;;24.53;48.34;101585.41;5065287;28;20458;-60
2022/06/26 11:36:10;;;;;;;2.03;1.15;;;;;;;24.53;48.27;101580.78;5063890;28;20029;-60
2022/06/26 11:38:36;;;;;;;1.70;1.20;;;;;;;24.53;48.60;101585.41;5065038;28;20132;-59